Aviation Digital Data Service (ADDS)

Output produced by METARs form (0603 UTC 18 January 2018)
found at http://www.aviationweather.gov/adds/metars/
 
LTAF 180550Z 04010KT 4200 -SHRA BR SCT035 BKN100 10/09 Q1005 R052///61 BECMG TL0620 9999 NSW
TAF LTAF 180440Z 1806/1906 03008KT 9999 -SHRA SCT035 BKN100 
     BECMG 1807/1809 20014KT 
     TEMPO 1810/1814 4000 SHRA BR BKN030 BKN080
       
LTCP 180550Z 08013KT 5000 RA BR SCT007 BKN030 OVC090 04/04 Q1010 R05290295
TAF LTCP 180440Z 1806/1815 06006KT 7000 -RA SCT008 BKN035 OVC090 
     TEMPO 1806/1809 4000 RA BR 
     BECMG 1813/1815 4000 -RASN BKN008 BKN035 OVC090
       
LTBJ 180550Z 33008KT 9999 -TSRA FEW015CB SCT025 BKN100 10/07 Q0996 R162///95 BECMG TL0620 NSW
TAF LTBJ 180440Z 1806/1906 30015G30KT 9999 -SHRA SCT030 BKN100 
     TEMPO 1806/1809 -TSRA FEW015CB BKN025 
     BECMG 1806/1808 36018G30KT 
     BECMG 1812/1815 -RASN 
     BECMG 1818/1821 36012KT 
     BECMG 1821/1824 VRB02KT CAVOK
       
LTAH 180440Z 22009KT 9999 -RA SCT035 BKN080 07/04 Q0994 RMK RWY13 23009KT
TAF LTAH 180440Z 1806/1815 30012KT 9999 BKN030 BKN090 
     TEMPO 1806/1810 -SHRA
       
LTCO 180550Z VRB02KT 0800 R16/1300D R34/1000D SN BR BKN015 OVC060 M04/M05 Q1009
TAF LTCO 180440Z 1806/1815 VRB02KT 1400 -SN BR BKN020 OVC060 
     BECMG 1806/1808 21012KT 6000 
     TEMPO 1806/1810 -SN 
     TEMPO 1810/1813 -SN
       
TAF LTBT 180440Z 1806/1815 25015KT 9999 -SHRA SCT030 BKN080 
     BECMG 1808/1809 32015KT -RA
       
TAF LTAE 180440Z 1806/1815 30008KT 8000 -RA SCT010 BKN030 OVC080 
     BECMG 1807/1809 -SN
       
LTBY 180550Z 23014KT 200V270 9999 -RA BKN030 BKN100 07/03 Q0991
TAF LTBY 180440Z 1806/1815 30012KT 9999 BKN030 BKN090 
     TEMPO 1806/1810 -SHRA
       
LTAI 180550Z 31008KT 4900 BR SCT030 BKN100 11/10 Q0997 NOSIG
TAF COR LTAI 180440Z 1806/1906 VRB02KT 4000 BR SCT030 BKN100 
     BECMG 1806/1809 34012KT 9999 NSW 
     BECMG 1812/1815 34020G35KT 
     BECMG 1815/1818 CAVOK
       
LTBA 180550Z 31007KT 9999 -SHRA SCT013 BKN025 BKN080 06/04 Q0994 NOSIG
TAF LTBA 180440Z 1806/1912 33015KT 9999 -SHRA SCT012 BKN025 
     TEMPO 1806/1810 33020G32KT 
     BECMG 1811/1814 SCT035 BKN100 
     BECMG 1814/1817 CAVOK 
     BECMG 1906/1909 22015KT
       
LTBF 180550Z 36008KT 9999 -SHRA FEW015 SCT035 BKN100 06/04 Q0996 NOSIG
TAF LTBF 180440Z 1806/1815 01015KT 9999 -SHRA SCT035 BKN100 
     PROB30 1809/1811 -TSRA FEW025CB SCT035
       
LTBG 180300Z 25011KT 9999 -SHRA SCT035 BKN100 11/09 Q0991 BECMG TL0500 34015KT RMK RWY18 26007KT 230V340
TAF LTBG 180440Z 1806/1815 34015KT 9999 FEW015 SCT035 BKN100 
     TEMPO 1806/1809 -SHRA 
     TEMPO 1809/1813 -RASN
       
LTCJ 180550Z 34005KT 310V010 6000 -RA BKN022 OVC080 05/05 Q1013
TAF LTCJ 180440Z 1806/1906 VRB02KT 8000 -RA BKN030 OVC080 
     TEMPO 1806/1809 4000 BR 
     BECMG 1809/1811 16016KT 
     BECMG 1811/1813 SCT040 BKN100
       
LTBH 180550Z /////KT 6000 -SHRA SCT035 BKN100 06/03 Q0997
TAF LTBH 180440Z 1806/1815 32015KT 9999 SCT035 BKN100 
     TEMPO 1806/1809 -SHRA
       
LTAY 180550Z 25011KT 220V290 9999 -RA BKN030 BKN090 09/05 Q0994
TAF LTAY 180440Z 1806/1815 29017G30KT 9999 -SHRA SCT030 BKN090 
     BECMG 1812/1815 -RASN
       
LTFH 180550Z 07004KT 9999 SCT033 BKN090 09/02 Q0997 NOSIG
TAF LTFH 180440Z 1806/1815 13009KT 9999 SCT036 BKN100 
     TEMPO 1812/1815 -SHRA BKN030 BKN090
       
LTBL 180454Z 30021G32KT 9999 -SHRA SCT025 BKN090 11/07 Q0995 NOSIG RMK RWY17 31019KT
TAF LTBL 180440Z 1806/1815 25015KT 9999 -SHRA SCT030 BKN080 
     BECMG 1807/1808 32015KT -RA
       
LTBU 180550Z 28018G31KT 9999 -SHRA SCT030 BKN080 05/02 Q0994
TAF LTBU 180440Z 1806/1906 33018G32KT 9999 SCT035 BKN100 
     TEMPO 1806/1810 -SHRA SCT010 BKN025 
     BECMG 1812/1815 CAVOK 
     BECMG 1815/1818 33015KT 
     BECMG 1822/1902 VRB02KT
       
LTBS 180550Z 23022KT 9999 SCT018TCU BKN070 16/11 Q0998 TEMPO 4000 SHRA
TAF LTBS 180440Z 1806/1906 21017KT 9999 -SHRA SCT025 BKN070 
     TEMPO 1806/1808 4000 SHRA 
     BECMG 1807/1809 34015KT
       
LTCC 180550Z 12004KT 2000 R34/1300D R16/P1500U -RA BR FEW008 BKN035 OVC090 04/03 Q1012 BECMG TL0700 8000
TAF LTCC 180440Z 1806/1906 VRB02KT 8000 SCT040 BKN100 
     TEMPO 1806/1810 2000 -RA BR FEW007 BKN030 
     BECMG 1809/1812 16016KT 
     TEMPO 1810/1814 -RA BKN030 OVC080 
     BECMG 1815/1819 -RA BKN030 OVC080
       
LTFD 180550Z 24012KT 9999 FEW020CB SCT030 BKN090 11/04 Q0994 RETS
TAF LTFD 180440Z 1806/1815 21015KT 9999 -SHRA SCT035 BKN100 
     BECMG 1806/1808 07015KT 
     PROB30 1809/1811 -TSRA FEW025CB SCT030
       
LTCA 180550Z 22003KT 160V270 9999 FEW020 BKN030 BKN100 02/01 Q1009 RERA NOSIG
TAF LTCA 180440Z 1806/1815 09015KT 9999 -RA SCT010 BKN030 OVC080 
     TEMPO 1808/1811 -RASN
       
LTAT 180550Z 30005KT 8000 -RA SCT007 BKN035 OVC090 02/02 Q1008 RERASN NOSIG
TAF LTAT 180440Z 1806/1906 VRB02KT 7000 -RA SCT008 BKN035 
     BECMG 1813/1815 4000 -RASN BKN008 BKN035 
     TEMPO 1817/1821 20014KT 
     BECMG 1821/1822 2000 -SN BR OVC005 
     PROB30 
     TEMPO 1902/1906 0800 SN FG
       
LTAU 180550Z 08008KT 040V120 9999 BKN030 BKN080 07/00 Q1000 RESHRA NOSIG
TAF LTAU 180440Z 1806/1906 13008KT 8000 -RA BKN030 BKN080 
     BECMG 1807/1810 18015G25KT 
     BECMG 1812/1814 25008KT 2000 SHSNRA 
     PROB40 
     TEMPO 1814/1816 0400 +TSSN FEW020CB BKN025 
     BECMG 1816/1818 SN SCT005 BKN025 
     TEMPO 1816/1820 0400 +SN 
     BECMG 1900/1903 4000 -SN
       
LTCD 180550Z 29004KT 270V330 8000 BKN035 BKN090 00/M01 Q1006 NOSIG
TAF AMD LTCD 180503Z 1806/1815 VRB02KT 9999 BKN035 BKN090 
     TEMPO 1806/1809 -SNRA 
     BECMG 1806/1809 09018KT 
     BECMG 1810/1812 4000 -SN BLSN 
     TEMPO 1810/1812 09018G36KT 
     TEMPO 1812/1815 09018G36KT SN
       
LTCE 180550Z VRB02KT 2000 R26L/P1500D R08L/P1500N -SN BR BKN020 BKN070 M05/M06 Q1007 BECMG TL0620 7000
TAF LTCE 180440Z 1806/1906 VRB02KT 7000 BKN020 BKN070 
     TEMPO 1806/1810 -SN 
     BECMG 1807/1810 28012KT 
     BECMG 1810/1812 4000 -SN BR 
     TEMPO 1812/1816 2500 SN BR 
     BECMG 1816/1819 05015KT 
     TEMPO 1816/1820 05017G27KT 2500 SN BLSN 
     TEMPO 1820/1824 05017G27KT 2500 SN BLSN 
     TEMPO 1900/1904 -SN
       
LTAC 180550Z 35004KT 300V050 9999 -RA BKN025 BKN080 04/03 Q0993 NOSIG
TAF LTAC 180440Z 1806/1906 20009KT 8000 -SHRA BKN035 BKN090 
     BECMG 1808/1811 28012KT -SHSN 
     TEMPO 1811/1815 29015G30KT 2000 SHSN BKN025 BKN080 
     BECMG 1816/1818 SCT040 BKN100
       
LTBI 180200Z VRB01KT 9999 -SHRA BKN030 BKN090 06/03 Q0995 NOSIG RMK RWY09 VRB01KT
TAF LTBI 180440Z 1806/1815 30012KT 9999 BKN030 BKN090 
     TEMPO 1806/1810 -SHRA
       
LTAD 180507Z VRB03KT 9999 BKN030 BKN090 06/04 Q0994 RERA NOSIG RMK RWY29 02005KT 360V060
TAF LTAD 180440Z 1806/1815 20009KT 9999 -RA BKN030 OVC090 
     BECMG 1808/1811 24015G25KT -SHSN
       
TAF LTBK 180440Z 1806/1815 30015G30KT 9999 -SHRA SCT030 BKN100 
     TEMPO 1806/1809 -TSRA FEW015CB BKN025 
     BECMG 1806/1808 36018G30KT 
     BECMG 1812/1815 -RASN
       
TAF LTAB 180440Z 1806/1815 22009KT 9999 -RA BKN035 BKN090 
     BECMG 1809/1811 -SHSN 
     PROB30 
     TEMPO 1811/1815 28015G30KT 2000 SHSN FEW012 BKN025 OVC080
       
LTAG 180550Z 02007KT 7000 -SHRA BKN030 OVC080 09/08 Q1005 NOSIG
TAF LTAG 180440Z 1806/1906 03009KT 9999 BKN030 BKN080 
     TEMPO 1806/1810 -SHRA 
     BECMG 1807/1809 18013KT 
     TEMPO 1811/1815 VRB15G25KT 5000 TSRA SCT020CB BKN030 
     TEMPO 1815/1819 -SHRA 
     BECMG 1818/1821 03018G28KT SCT035 BKN120
       
LTCN 180550Z 26003KT 220V300 6000 -RA FEW015 SCT030 OVC080 05/05 Q1009 NOSIG
TAF LTCN 180440Z 1806/1815 09009KT 6000 -RA FEW015 SCT030 BKN080 
     TEMPO 1809/1813 4000 RA BR
       
LTFA 180528Z 30021G33KT 9999 FEW020CB SCT030 BKN090 11/07 Q0996 RMK RWY17 29024G35KT
TAF LTFA 180440Z 1806/1815 25015KT 9999 -SHRA SCT030 BKN080 
     BECMG 1807/1808 32015KT -RA
       
LTAZ 180550Z 13013KT 9999 -RA SCT035 BKN080 07/02 Q0998
TAF LTAZ 180440Z 1806/1906 16012KT 9999 -RA BKN035 BKN080 
     BECMG 1806/1808 22020G30KT 
     BECMG 1811/1813 29015KT 2000 SHSNRA SCT010 BKN030 
     PROB40 
     TEMPO 1813/1815 0400 +TSSN FEW020CB BKN025 
     BECMG 1815/1817 SN SCT005 BKN025 
     TEMPO 1815/1819 0400 +SN 
     BECMG 1821/1824 7000 -SN
       
LTCF 180550Z VRB01KT 5000 -SN BR BKN025 BKN070 M07/M08 Q1008
TAF LTCF 180440Z 1806/1815 VRB02KT 7000 BKN020 OVC070 
     TEMPO 1806/1810 4000 -SN BR 
     BECMG 1807/1810 21013KT 
     TEMPO 1810/1814 21015G27KT -SN BLSN
       
LTAL 180550Z VRB02KT 8000 0900NW R18/P1500N BCFG SCT050 BKN080 00/00 Q0991
TAF LTAL 180440Z 1806/1815 17012KT 5000 BR FEW008 SCT030 BKN100 
     TEMPO 1808/1812 1500 -SN 
     TEMPO 1812/1815 -SN
       
LTAN 180550Z 10005KT 050V140 9999 SCT035 04/02 Q0996 NOSIG
TAF LTAN 180440Z 1806/1815 20008KT 9999 SCT035 BKN100 
     BECMG 1806/1808 -SHRA 
     TEMPO 1809/1812 21020KT 
     BECMG 1812/1814 33022KT -SHSN
       
TAF LTBN 180440Z 1806/1815 30012KT 9999 BKN030 BKN090 
     TEMPO 1806/1810 -SHRA
       
LTCR 180550Z 11015KT 6000 -RA FEW015 BKN030 OVC080 06/05 Q1013
TAF LTCR 180440Z 1806/1815 12016KT 9999 -RA FEW015 BKN030 OVC080
       
LTAP 180550Z VRB01KT 9999 -SHRA BKN033 BKN090 05/03 Q0996 NOSIG
TAF LTAP 180440Z 1806/1906 19009KT 9999 -SHRA BKN033 BKN080 
     PROB40 
     TEMPO 1809/1812 22020G35KT 
     TEMPO 1810/1814 -SNRA 
     BECMG 1816/1820 SCT040 BKN100
       
LTFE 180550Z 26027G39KT 9999 -SHRA BKN030 BKN080 15/07 Q0997 NOSIG
TAF LTFE 180440Z 1806/1906 27018G30KT 9999 -SHRA SCT030 BKN080 
     BECMG 1807/1810 33022G32KT 
     BECMG 1816/1818 35012KT 
     BECMG 1900/1902 VRB02KT CAVOK
       
LTCK 180550Z 10005KT 070V140 7000 2000N -SN BR SCT020 BKN030 OVC080 01/M00 Q1010
TAF LTCK 180440Z 1806/1815 06008KT 4000 -SN BR BKN030 OVC060 
     TEMPO 1806/1810 0900 SN FZFG VV002 
     TEMPO 1811/1815 0900 SN FZFG VV002 
     BECMG 1812/1814 10015G25KT
       
LTAJ 180550Z 13005KT 0500 R28/0900N R10/0900U -RA FG VV002 06/06 Q1009 NOSIG
TAF LTAJ 180440Z 1806/1906 14012KT 0500 -RA FG VV002 
     BECMG 1806/1808 1800 -RA BR SCT005 BKN015 
     TEMPO 1811/1814 RA BKN005 BKN015 
     TEMPO 1815/1818 18022KT RA BKN003 BKN015
       
LTFJ 180550Z 34008KT 310V010 9999 SCT017 BKN035 BKN080 06/02 Q0993 RESHRA NOSIG
TAF LTFJ 180440Z 1806/1906 33018G30KT 9999 -SHRA SCT010 BKN030 
     BECMG 1806/1810 34015KT 
     PROB30 
     TEMPO 1809/1811 -SHRASN 
     BECMG 1813/1816 SCT035 BKN100 
     BECMG 1818/1821 CAVOK 
     BECMG 1903/1905 24009KT
       
TAF LTBX 180440Z 1806/1815 33018G30KT 9999 -SHRA SCT010 BKN030 BKN090 
     BECMG 1806/1810 34015KT 
     PROB40 
     TEMPO 1809/1811 -SHRASN 
     BECMG 1813/1815 SCT035 BKN100
       
LTCL 180550Z 30004KT 7000 -RA FEW015 BKN035 OVC090 04/03 Q1014
TAF LTCL 180440Z 1806/1815 VRB02KT 9999 SCT040 BKN100 
     TEMPO 1806/1810 -RA FEW015 BKN030 OVC080
       
LTCM 180550Z 15010KT 9999 SCT035 BKN100 12/03 Q0993
TAF LTCM 180440Z 1806/1815 17013KT 9999 SCT035 BKN100 
     TEMPO 1806/1810 -SHRA BKN030 BKN080 
     TEMPO 1812/1815 -SHRA
       
TAF LTAV 180440Z 1806/1815 30012KT 9999 BKN030 BKN090 
     TEMPO 1806/1810 -SHRA
       
LTFC 180550Z 21010KT 9999 BKN030 BKN090 09/05 Q0995
TAF LTFC 180440Z 1806/1906 20012G22KT 9999 BKN030 BKN090 
     BECMG 1806/1809 -SHRA 
     BECMG 1809/1812 34012KT 
     BECMG 1812/1816 4000 SHSN BR BKN020 BKN080 
     BECMG 1818/1821 SCT035
       
LTAW 180550Z 05007G17KT 340V140 9999 BKN030 OVC080 10/01 Q0999 RERA
TAF LTAW 180440Z 1806/1815 01009KT 9999 -SHRA FEW015 BKN035 OVC090 
     TEMPO 1810/1814 21020G35KT
       
LTBQ 180550Z 29011KT 5000 SHRA FEW013 BKN025 BKN070 07/06 Q0993 BECMG TL0630 8000 NSW
TAF LTBQ 180440Z 1806/1815 21012KT 8000 -SHRA BKN032 BKN080 
     BECMG 1806/1808 28008KT BKN025 BKN070 
     PROB30 
     TEMPO 1810/1814 30015G25KT -SHRASN
       
LTCG 180550Z 12007KT 9999 SCT035 BKN100 10/04 Q1000 NOSIG
TAF LTCG 180440Z 1806/1906 18009KT 9999 SCT035 BKN100 
     BECMG 1806/1808 21025G37KT 
     BECMG 1810/1813 13015G25KT 
     BECMG 1813/1816 31025G40KT 
     BECMG 1816/1819 4000 -SHRA SCT010 BKN028 
     BECMG 1819/1822 25015KT 2800 SHRA BKN006 BKN028 
     BECMG 1900/1903 8000 -SHRA SCT010 BKN028
       
LTCI 180550Z 17012KT 120V220 8000 SCT030 BKN070 02/M05 Q1009 NOSIG
TAF LTCI 180440Z 1806/1815 18008KT 9999 SCT035 BKN070 
     BECMG 1810/1812 15016G30KT
       
TAF LTBP 180440Z 1806/1815 30018G30KT 9999 -SHRA SCT012 BKN025
       
LTBR 180550Z 24012KT 6000 SHRA BKN025 BKN080 05/04 Q0993 BECMG TL0650 32015KT NSW
TAF LTBR 180440Z 1806/1906 32015KT 9999 -SHRA BKN030 BKN080 
     PROB30 1809/1812 33015G25KT -SHSNRA 
     PROB40 1812/1816 33015G25KT -SHSN SCT010 BKN025 
     PROB40 1816/1820 33016G28KT -SHSN SCT010 BKN025 
     PROB40 1822/1902 30018G30KT